KGUS/GUS METAR and TAF weather

Enter ICAO airport designator
Station Type Date Time Source
KGUS METAR 2021/05/12 03:56 UTC NOAA

KGUS 120356Z AUTO 34006KT 10SM CLR 05/02 A3038 RMK AO2 SLPNO T00470024 $


Station Type Date Time Source
KGUS Decoded METAR 2021/05/12 03:56 UTC NOAA

Grissom Air Force Base / Peru, IN, United States (KGUS) 40-39N 086-09W
May 11, 2021 - 11:56 PM EDT / 2021.05.12 0356 UTC
Wind: from the NNW (340 degrees) at 7 MPH (6 KT):0
Visibility: 10 mile(s):0
Sky conditions: clear
Temperature: 40.5 F (4.7 C)
Dew Point: 36.3 F (2.4 C)
Relative Humidity: 85%
Pressure (altimeter): 30.38 in. Hg (1028 hPa)
ob: KGUS 120356Z AUTO 34006KT 10SM CLR 05/02 A3038 RMK AO2 SLPNO T00470024
cycle: 4

Station Type Date Time Source
KGUS TAF 2021/05/12 00:06 UTC NOAA

TAF TAF
AMD KGUS 120200Z 1200/1303 34006KT 9999 SKC QNH3036INS TX14/1221Z TN02/1211Z LAST NO
AMDS AFT 1203 NEXT 1213

Example: see airport list